sensor_id;sensor_type;location;lat;lon;timestamp;P1;durP1;ratioP1;P2;durP2;ratioP2
48993;SDS011;34804;49.214;12.276;2023-09-18T00:00:33;8.60;;;5.40;;
48993;SDS011;34804;49.214;12.276;2023-09-18T00:03:01;7.93;;;5.22;;
48993;SDS011;34804;49.214;12.276;2023-09-18T00:05:30;7.95;;;4.78;;
48993;SDS011;34804;49.214;12.276;2023-09-18T00:07:57;6.88;;;4.72;;
48993;SDS011;34804;49.214;12.276;2023-09-18T00:10:25;7.18;;;4.70;;
48993;SDS011;34804;49.214;12.276;2023-09-18T00:12:52;9.45;;;5.40;;
48993;SDS011;34804;49.214;12.276;2023-09-18T00:15:19;7.15;;;5.05;;
48993;SDS011;34804;49.214;12.276;2023-09-18T00:17:46;11.18;;;5.70;;
48993;SDS011;34804;49.214;12.276;2023-09-18T00:20:13;8.10;;;5.22;;
48993;SDS011;34804;49.214;12.276;2023-09-18T00:22:43;8.25;;;5.32;;
48993;SDS011;34804;49.214;12.276;2023-09-18T00:25:10;9.52;;;6.72;;
48993;SDS011;34804;49.214;12.276;2023-09-18T00:27:37;9.70;;;7.05;;
48993;SDS011;34804;49.214;12.276;2023-09-18T00:30:04;12.30;;;7.45;;
48993;SDS011;34804;49.214;12.276;2023-09-18T00:32:32;11.52;;;7.50;;
48993;SDS011;34804;49.214;12.276;2023-09-18T00:34:59;13.30;;;7.10;;
48993;SDS011;34804;49.214;12.276;2023-09-18T00:37:26;11.40;;;6.90;;
48993;SDS011;34804;49.214;12.276;2023-09-18T00:39:54;9.98;;;7.18;;
48993;SDS011;34804;49.214;12.276;2023-09-18T00:42:21;9.98;;;7.05;;
48993;SDS011;34804;49.214;12.276;2023-09-18T00:44:49;9.43;;;6.53;;
48993;SDS011;34804;49.214;12.276;2023-09-18T00:47:16;12.48;;;6.63;;
48993;SDS011;34804;49.214;12.276;2023-09-18T00:49:47;9.93;;;7.18;;
48993;SDS011;34804;49.214;12.276;2023-09-18T00:52:16;10.40;;;6.43;;
48993;SDS011;34804;49.214;12.276;2023-09-18T00:54:45;10.98;;;6.90;;
48993;SDS011;34804;49.214;12.276;2023-09-18T00:57:14;11.82;;;6.32;;
48993;SDS011;34804;49.214;12.276;2023-09-18T00:59:41;10.60;;;6.53;;
48993;SDS011;34804;49.214;12.276;2023-09-18T01:02:08;9.98;;;6.50;;
48993;SDS011;34804;49.214;12.276;2023-09-18T01:04:35;10.15;;;5.85;;
48993;SDS011;34804;49.214;12.276;2023-09-18T01:07:04;8.23;;;6.03;;
48993;SDS011;34804;49.214;12.276;2023-09-18T01:09:31;8.30;;;5.95;;
48993;SDS011;34804;49.214;12.276;2023-09-18T01:14:44;8.85;;;6.05;;
48993;SDS011;34804;49.214;12.276;2023-09-18T01:17:25;10.60;;;7.18;;
48993;SDS011;34804;49.214;12.276;2023-09-18T01:19:52;10.25;;;6.93;;
48993;SDS011;34804;49.214;12.276;2023-09-18T01:22:19;10.70;;;6.70;;
48993;SDS011;34804;49.214;12.276;2023-09-18T01:24:47;11.35;;;6.22;;
48993;SDS011;34804;49.214;12.276;2023-09-18T01:27:17;9.10;;;5.15;;
48993;SDS011;34804;49.214;12.276;2023-09-18T01:29:45;9.05;;;5.93;;
48993;SDS011;34804;49.214;12.276;2023-09-18T01:32:12;12.25;;;6.15;;
48993;SDS011;34804;49.214;12.276;2023-09-18T01:34:41;11.15;;;6.18;;
48993;SDS011;34804;49.214;12.276;2023-09-18T01:37:25;10.40;;;5.55;;
48993;SDS011;34804;49.214;12.276;2023-09-18T01:39:54;9.95;;;5.90;;
48993;SDS011;34804;49.214;12.276;2023-09-18T01:42:28;8.32;;;5.22;;
48993;SDS011;34804;49.214;12.276;2023-09-18T01:44:55;9.65;;;6.03;;
48993;SDS011;34804;49.214;12.276;2023-09-18T01:47:22;9.93;;;6.18;;
48993;SDS011;34804;49.214;12.276;2023-09-18T01:49:49;10.75;;;6.15;;
48993;SDS011;34804;49.214;12.276;2023-09-18T01:52:16;9.18;;;6.47;;
48993;SDS011;34804;49.214;12.276;2023-09-18T01:54:44;10.85;;;5.97;;
48993;SDS011;34804;49.214;12.276;2023-09-18T01:57:11;8.45;;;5.35;;
48993;SDS011;34804;49.214;12.276;2023-09-18T01:59:38;9.73;;;5.53;;
48993;SDS011;34804;49.214;12.276;2023-09-18T02:02:06;9.52;;;5.72;;
48993;SDS011;34804;49.214;12.276;2023-09-18T02:04:38;9.38;;;5.85;;
48993;SDS011;34804;49.214;12.276;2023-09-18T02:07:24;8.98;;;5.95;;
48993;SDS011;34804;49.214;12.276;2023-09-18T02:09:51;8.77;;;5.63;;
48993;SDS011;34804;49.214;12.276;2023-09-18T02:12:19;9.77;;;5.93;;
48993;SDS011;34804;49.214;12.276;2023-09-18T02:14:46;9.68;;;6.50;;
48993;SDS011;34804;49.214;12.276;2023-09-18T02:17:13;11.07;;;6.28;;
48993;SDS011;34804;49.214;12.276;2023-09-18T02:19:39;8.35;;;5.80;;
48993;SDS011;34804;49.214;12.276;2023-09-18T02:22:06;13.00;;;7.55;;
48993;SDS011;34804;49.214;12.276;2023-09-18T02:24:33;13.02;;;7.82;;
48993;SDS011;34804;49.214;12.276;2023-09-18T02:27:03;10.40;;;7.15;;
48993;SDS011;34804;49.214;12.276;2023-09-18T02:29:30;10.45;;;6.97;;
48993;SDS011;34804;49.214;12.276;2023-09-18T02:31:57;12.90;;;7.22;;
48993;SDS011;34804;49.214;12.276;2023-09-18T02:34:24;9.18;;;6.05;;
48993;SDS011;34804;49.214;12.276;2023-09-18T02:36:51;11.48;;;6.28;;
48993;SDS011;34804;49.214;12.276;2023-09-18T02:39:18;10.25;;;6.10;;
48993;SDS011;34804;49.214;12.276;2023-09-18T02:41:45;9.57;;;6.38;;
48993;SDS011;34804;49.214;12.276;2023-09-18T02:44:12;8.90;;;6.25;;
48993;SDS011;34804;49.214;12.276;2023-09-18T02:46:40;11.82;;;6.13;;
48993;SDS011;34804;49.214;12.276;2023-09-18T02:49:08;12.65;;;6.72;;
48993;SDS011;34804;49.214;12.276;2023-09-18T02:51:35;8.63;;;5.80;;
48993;SDS011;34804;49.214;12.276;2023-09-18T02:54:03;9.98;;;6.43;;
48993;SDS011;34804;49.214;12.276;2023-09-18T02:56:30;13.60;;;7.32;;
48993;SDS011;34804;49.214;12.276;2023-09-18T02:58:57;13.55;;;7.10;;
48993;SDS011;34804;49.214;12.276;2023-09-18T03:01:24;13.05;;;7.60;;
48993;SDS011;34804;49.214;12.276;2023-09-18T03:03:51;13.13;;;7.30;;
48993;SDS011;34804;49.214;12.276;2023-09-18T03:06:18;9.70;;;6.68;;
48993;SDS011;34804;49.214;12.276;2023-09-18T03:08:45;11.75;;;6.70;;
48993;SDS011;34804;49.214;12.276;2023-09-18T03:11:12;13.07;;;6.93;;
48993;SDS011;34804;49.214;12.276;2023-09-18T03:13:44;11.85;;;7.10;;
48993;SDS011;34804;49.214;12.276;2023-09-18T03:16:13;11.73;;;7.05;;
48993;SDS011;34804;49.214;12.276;2023-09-18T03:18:40;11.88;;;6.20;;
48993;SDS011;34804;49.214;12.276;2023-09-18T03:21:07;10.40;;;6.68;;
48993;SDS011;34804;49.214;12.276;2023-09-18T03:23:34;10.73;;;6.03;;
48993;SDS011;34804;49.214;12.276;2023-09-18T03:26:01;9.88;;;6.55;;
48993;SDS011;34804;49.214;12.276;2023-09-18T03:28:29;12.95;;;6.75;;
48993;SDS011;34804;49.214;12.276;2023-09-18T03:30:56;10.77;;;6.28;;
48993;SDS011;34804;49.214;12.276;2023-09-18T03:33:24;10.40;;;6.80;;
48993;SDS011;34804;49.214;12.276;2023-09-18T03:35:51;10.95;;;6.45;;
48993;SDS011;34804;49.214;12.276;2023-09-18T03:38:21;10.95;;;6.32;;
48993;SDS011;34804;49.214;12.276;2023-09-18T03:40:48;10.73;;;7.05;;
48993;SDS011;34804;49.214;12.276;2023-09-18T03:43:15;11.68;;;6.85;;
48993;SDS011;34804;49.214;12.276;2023-09-18T03:45:42;13.35;;;6.93;;
48993;SDS011;34804;49.214;12.276;2023-09-18T03:48:09;10.15;;;5.85;;
48993;SDS011;34804;49.214;12.276;2023-09-18T03:50:37;10.07;;;6.40;;
48993;SDS011;34804;49.214;12.276;2023-09-18T03:53:06;11.20;;;6.13;;
48993;SDS011;34804;49.214;12.276;2023-09-18T03:55:33;11.05;;;6.22;;
48993;SDS011;34804;49.214;12.276;2023-09-18T03:58:00;19.20;;;8.40;;
48993;SDS011;34804;49.214;12.276;2023-09-18T04:00:27;10.27;;;6.57;;
48993;SDS011;34804;49.214;12.276;2023-09-18T04:02:54;11.05;;;6.93;;
48993;SDS011;34804;49.214;12.276;2023-09-18T04:05:21;12.43;;;7.25;;
48993;SDS011;34804;49.214;12.276;2023-09-18T04:07:48;10.27;;;6.05;;
48993;SDS011;34804;49.214;12.276;2023-09-18T04:10:15;10.55;;;6.10;;
48993;SDS011;34804;49.214;12.276;2023-09-18T04:12:49;12.70;;;5.95;;
48993;SDS011;34804;49.214;12.276;2023-09-18T04:15:19;8.48;;;5.45;;
48993;SDS011;34804;49.214;12.276;2023-09-18T04:17:46;8.50;;;5.75;;
48993;SDS011;34804;49.214;12.276;2023-09-18T04:20:14;9.02;;;6.25;;
48993;SDS011;34804;49.214;12.276;2023-09-18T04:22:45;8.18;;;5.32;;
48993;SDS011;34804;49.214;12.276;2023-09-18T04:25:16;9.10;;;5.75;;
48993;SDS011;34804;49.214;12.276;2023-09-18T04:27:45;8.65;;;5.25;;
48993;SDS011;34804;49.214;12.276;2023-09-18T04:30:12;13.30;;;6.38;;
48993;SDS011;34804;49.214;12.276;2023-09-18T04:32:40;9.70;;;6.07;;
48993;SDS011;34804;49.214;12.276;2023-09-18T04:35:08;11.15;;;5.75;;
48993;SDS011;34804;49.214;12.276;2023-09-18T04:37:36;12.82;;;6.07;;
48993;SDS011;34804;49.214;12.276;2023-09-18T04:40:07;18.88;;;7.75;;
48993;SDS011;34804;49.214;12.276;2023-09-18T04:42:38;9.95;;;5.80;;
48993;SDS011;34804;49.214;12.276;2023-09-18T04:45:06;12.48;;;6.40;;
48993;SDS011;34804;49.214;12.276;2023-09-18T04:47:33;11.05;;;5.95;;
48993;SDS011;34804;49.214;12.276;2023-09-18T04:50:00;13.18;;;6.80;;
48993;SDS011;34804;49.214;12.276;2023-09-18T04:52:33;17.30;;;9.23;;
48993;SDS011;34804;49.214;12.276;2023-09-18T04:55:00;14.75;;;7.45;;
48993;SDS011;34804;49.214;12.276;2023-09-18T04:57:29;16.35;;;7.07;;
48993;SDS011;34804;49.214;12.276;2023-09-18T04:59:55;17.80;;;8.27;;
48993;SDS011;34804;49.214;12.276;2023-09-18T05:02:41;17.13;;;7.30;;
48993;SDS011;34804;49.214;12.276;2023-09-18T05:05:09;12.20;;;6.90;;
48993;SDS011;34804;49.214;12.276;2023-09-18T05:07:36;13.02;;;6.95;;
48993;SDS011;34804;49.214;12.276;2023-09-18T05:10:03;11.75;;;7.45;;
48993;SDS011;34804;49.214;12.276;2023-09-18T05:12:33;17.30;;;9.27;;
48993;SDS011;34804;49.214;12.276;2023-09-18T05:15:00;13.07;;;8.15;;
48993;SDS011;34804;49.214;12.276;2023-09-18T05:17:43;13.00;;;7.45;;
48993;SDS011;34804;49.214;12.276;2023-09-18T05:20:13;13.90;;;6.90;;
48993;SDS011;34804;49.214;12.276;2023-09-18T05:22:43;12.63;;;6.97;;
48993;SDS011;34804;49.214;12.276;2023-09-18T05:25:11;10.55;;;6.18;;
48993;SDS011;34804;49.214;12.276;2023-09-18T05:27:38;9.60;;;6.47;;
48993;SDS011;34804;49.214;12.276;2023-09-18T05:30:15;10.27;;;6.57;;
48993;SDS011;34804;49.214;12.276;2023-09-18T05:32:47;8.18;;;5.90;;
48993;SDS011;34804;49.214;12.276;2023-09-18T05:35:14;10.45;;;6.45;;
48993;SDS011;34804;49.214;12.276;2023-09-18T05:37:43;15.18;;;6.47;;
48993;SDS011;34804;49.214;12.276;2023-09-18T05:40:10;9.98;;;7.20;;
48993;SDS011;34804;49.214;12.276;2023-09-18T05:42:39;14.23;;;6.57;;
48993;SDS011;34804;49.214;12.276;2023-09-18T05:45:10;10.05;;;6.05;;
48993;SDS011;34804;49.214;12.276;2023-09-18T05:47:41;8.90;;;6.38;;
48993;SDS011;34804;49.214;12.276;2023-09-18T05:50:10;9.90;;;6.85;;
48993;SDS011;34804;49.214;12.276;2023-09-18T05:52:42;10.85;;;7.03;;
48993;SDS011;34804;49.214;12.276;2023-09-18T05:55:10;9.68;;;6.80;;
48993;SDS011;34804;49.214;12.276;2023-09-18T05:57:37;13.93;;;7.13;;
48993;SDS011;34804;49.214;12.276;2023-09-18T06:00:04;13.13;;;7.35;;
48993;SDS011;34804;49.214;12.276;2023-09-18T06:02:32;9.82;;;6.25;;
48993;SDS011;34804;49.214;12.276;2023-09-18T06:04:59;9.27;;;6.72;;
48993;SDS011;34804;49.214;12.276;2023-09-18T06:07:28;9.98;;;7.43;;
48993;SDS011;34804;49.214;12.276;2023-09-18T06:09:55;11.70;;;8.25;;
48993;SDS011;34804;49.214;12.276;2023-09-18T06:12:23;11.32;;;6.97;;
48993;SDS011;34804;49.214;12.276;2023-09-18T06:14:51;15.00;;;9.63;;
48993;SDS011;34804;49.214;12.276;2023-09-18T06:17:19;12.85;;;8.55;;
48993;SDS011;34804;49.214;12.276;2023-09-18T06:19:46;9.35;;;7.00;;
48993;SDS011;34804;49.214;12.276;2023-09-18T06:22:13;10.68;;;7.28;;
48993;SDS011;34804;49.214;12.276;2023-09-18T06:24:41;10.80;;;7.30;;
48993;SDS011;34804;49.214;12.276;2023-09-18T06:27:09;15.05;;;7.47;;
48993;SDS011;34804;49.214;12.276;2023-09-18T06:29:37;10.18;;;6.90;;
48993;SDS011;34804;49.214;12.276;2023-09-18T06:32:05;13.02;;;7.05;;
48993;SDS011;34804;49.214;12.276;2023-09-18T06:34:33;13.52;;;9.02;;
48993;SDS011;34804;49.214;12.276;2023-09-18T06:37:00;13.60;;;8.52;;
48993;SDS011;34804;49.214;12.276;2023-09-18T06:39:27;12.45;;;8.75;;
48993;SDS011;34804;49.214;12.276;2023-09-18T06:41:53;12.65;;;8.52;;
48993;SDS011;34804;49.214;12.276;2023-09-18T06:44:20;10.73;;;7.15;;
48993;SDS011;34804;49.214;12.276;2023-09-18T06:46:49;11.38;;;7.43;;
48993;SDS011;34804;49.214;12.276;2023-09-18T06:49:16;10.55;;;6.72;;
48993;SDS011;34804;49.214;12.276;2023-09-18T06:51:46;12.80;;;6.95;;
48993;SDS011;34804;49.214;12.276;2023-09-18T06:54:13;10.18;;;6.57;;
48993;SDS011;34804;49.214;12.276;2023-09-18T06:56:40;8.77;;;6.78;;
48993;SDS011;34804;49.214;12.276;2023-09-18T06:59:08;11.13;;;6.75;;
48993;SDS011;34804;49.214;12.276;2023-09-18T07:01:35;10.23;;;5.80;;
48993;SDS011;34804;49.214;12.276;2023-09-18T07:04:02;8.77;;;6.05;;
48993;SDS011;34804;49.214;12.276;2023-09-18T07:06:31;6.78;;;4.88;;
48993;SDS011;34804;49.214;12.276;2023-09-18T07:08:58;7.80;;;5.38;;
48993;SDS011;34804;49.214;12.276;2023-09-18T07:11:25;8.13;;;5.35;;
48993;SDS011;34804;49.214;12.276;2023-09-18T07:13:52;8.35;;;5.65;;
48993;SDS011;34804;49.214;12.276;2023-09-18T07:16:19;10.93;;;5.65;;
48993;SDS011;34804;49.214;12.276;2023-09-18T07:18:46;8.38;;;5.65;;
48993;SDS011;34804;49.214;12.276;2023-09-18T07:21:13;7.32;;;5.60;;
48993;SDS011;34804;49.214;12.276;2023-09-18T07:23:40;7.43;;;5.32;;
48993;SDS011;34804;49.214;12.276;2023-09-18T07:26:07;7.35;;;5.13;;
48993;SDS011;34804;49.214;12.276;2023-09-18T07:28:34;6.85;;;4.68;;
48993;SDS011;34804;49.214;12.276;2023-09-18T07:31:05;9.90;;;5.45;;
48993;SDS011;34804;49.214;12.276;2023-09-18T07:33:33;7.68;;;5.35;;
48993;SDS011;34804;49.214;12.276;2023-09-18T07:36:00;7.65;;;5.32;;
48993;SDS011;34804;49.214;12.276;2023-09-18T07:38:27;8.18;;;5.78;;
48993;SDS011;34804;49.214;12.276;2023-09-18T07:40:54;8.23;;;5.43;;
48993;SDS011;34804;49.214;12.276;2023-09-18T07:43:26;7.10;;;4.90;;
48993;SDS011;34804;49.214;12.276;2023-09-18T07:45:53;7.35;;;5.05;;
48993;SDS011;34804;49.214;12.276;2023-09-18T07:48:22;8.20;;;5.40;;
48993;SDS011;34804;49.214;12.276;2023-09-18T07:50:49;10.48;;;5.30;;
48993;SDS011;34804;49.214;12.276;2023-09-18T07:53:17;8.57;;;4.80;;
48993;SDS011;34804;49.214;12.276;2023-09-18T07:55:47;6.90;;;4.95;;
48993;SDS011;34804;49.214;12.276;2023-09-18T07:58:21;6.35;;;4.60;;
48993;SDS011;34804;49.214;12.276;2023-09-18T08:00:48;5.97;;;4.05;;
48993;SDS011;34804;49.214;12.276;2023-09-18T08:03:20;6.78;;;4.75;;
48993;SDS011;34804;49.214;12.276;2023-09-18T08:05:54;8.23;;;5.43;;
48993;SDS011;34804;49.214;12.276;2023-09-18T08:08:21;8.00;;;4.50;;
48993;SDS011;34804;49.214;12.276;2023-09-18T08:10:50;6.90;;;4.85;;
48993;SDS011;34804;49.214;12.276;2023-09-18T08:13:17;5.93;;;4.22;;
48993;SDS011;34804;49.214;12.276;2023-09-18T08:15:45;6.38;;;4.35;;
48993;SDS011;34804;49.214;12.276;2023-09-18T08:18:12;8.00;;;4.80;;
48993;SDS011;34804;49.214;12.276;2023-09-18T08:20:42;8.48;;;4.32;;
48993;SDS011;34804;49.214;12.276;2023-09-18T08:23:10;5.97;;;4.15;;
48993;SDS011;34804;49.214;12.276;2023-09-18T08:25:37;7.53;;;4.38;;
48993;SDS011;34804;49.214;12.276;2023-09-18T08:28:06;5.65;;;4.20;;
48993;SDS011;34804;49.214;12.276;2023-09-18T08:30:35;9.65;;;4.93;;
48993;SDS011;34804;49.214;12.276;2023-09-18T08:33:03;6.57;;;4.68;;
48993;SDS011;34804;49.214;12.276;2023-09-18T08:35:31;7.65;;;4.82;;
48993;SDS011;34804;49.214;12.276;2023-09-18T08:37:58;9.23;;;4.20;;
48993;SDS011;34804;49.214;12.276;2023-09-18T08:40:26;9.07;;;4.25;;
48993;SDS011;34804;49.214;12.276;2023-09-18T08:42:53;5.72;;;4.15;;
48993;SDS011;34804;49.214;12.276;2023-09-18T08:45:23;7.05;;;4.20;;
48993;SDS011;34804;49.214;12.276;2023-09-18T08:47:57;8.48;;;4.20;;
48993;SDS011;34804;49.214;12.276;2023-09-18T08:50:25;5.38;;;3.70;;
48993;SDS011;34804;49.214;12.276;2023-09-18T08:52:55;5.55;;;3.97;;
48993;SDS011;34804;49.214;12.276;2023-09-18T08:55:22;7.78;;;4.10;;
48993;SDS011;34804;49.214;12.276;2023-09-18T08:57:50;9.32;;;4.03;;
48993;SDS011;34804;49.214;12.276;2023-09-18T09:00:19;6.57;;;3.72;;
48993;SDS011;34804;49.214;12.276;2023-09-18T09:02:46;6.43;;;3.55;;
48993;SDS011;34804;49.214;12.276;2023-09-18T09:05:17;6.13;;;4.10;;
48993;SDS011;34804;49.214;12.276;2023-09-18T09:07:45;5.85;;;3.67;;
48993;SDS011;34804;49.214;12.276;2023-09-18T09:10:12;6.00;;;3.85;;
48993;SDS011;34804;49.214;12.276;2023-09-18T09:15:16;5.90;;;3.70;;
48993;SDS011;34804;49.214;12.276;2023-09-18T09:17:51;6.10;;;3.58;;
48993;SDS011;34804;49.214;12.276;2023-09-18T09:20:28;6.15;;;3.80;;
48993;SDS011;34804;49.214;12.276;2023-09-18T09:22:55;5.28;;;3.45;;
48993;SDS011;34804;49.214;12.276;2023-09-18T09:25:28;5.90;;;3.83;;
48993;SDS011;34804;49.214;12.276;2023-09-18T09:27:58;6.20;;;3.50;;
48993;SDS011;34804;49.214;12.276;2023-09-18T09:30:27;5.30;;;3.70;;
48993;SDS011;34804;49.214;12.276;2023-09-18T09:32:55;5.40;;;3.45;;
48993;SDS011;34804;49.214;12.276;2023-09-18T09:35:24;5.68;;;3.55;;
48993;SDS011;34804;49.214;12.276;2023-09-18T09:38:06;6.07;;;3.40;;
48993;SDS011;34804;49.214;12.276;2023-09-18T09:40:38;5.13;;;3.30;;
48993;SDS011;34804;49.214;12.276;2023-09-18T09:43:10;6.05;;;3.40;;
48993;SDS011;34804;49.214;12.276;2023-09-18T09:45:40;7.80;;;3.50;;
48993;SDS011;34804;49.214;12.276;2023-09-18T09:48:07;7.03;;;3.50;;
48993;SDS011;34804;49.214;12.276;2023-09-18T09:50:43;9.85;;;3.63;;
48993;SDS011;34804;49.214;12.276;2023-09-18T09:53:15;6.50;;;3.70;;
48993;SDS011;34804;49.214;12.276;2023-09-18T09:55:42;7.80;;;3.50;;
48993;SDS011;34804;49.214;12.276;2023-09-18T09:58:10;8.57;;;3.20;;
48993;SDS011;34804;49.214;12.276;2023-09-18T10:03:10;10.23;;;3.83;;
48993;SDS011;34804;49.214;12.276;2023-09-18T10:05:43;9.15;;;3.15;;
48993;SDS011;34804;49.214;12.276;2023-09-18T10:08:17;7.43;;;3.80;;
48993;SDS011;34804;49.214;12.276;2023-09-18T10:10:48;9.15;;;3.67;;
48993;SDS011;34804;49.214;12.276;2023-09-18T10:16:04;7.20;;;3.13;;
48993;SDS011;34804;49.214;12.276;2023-09-18T10:24:20;9.55;;;3.53;;
48993;SDS011;34804;49.214;12.276;2023-09-18T10:29:22;7.88;;;2.85;;
48993;SDS011;34804;49.214;12.276;2023-09-18T10:31:53;7.40;;;3.05;;
48993;SDS011;34804;49.214;12.276;2023-09-18T10:34:21;8.75;;;3.60;;
48993;SDS011;34804;49.214;12.276;2023-09-18T10:36:51;9.38;;;3.83;;
48993;SDS011;34804;49.214;12.276;2023-09-18T10:39:23;8.48;;;3.17;;
48993;SDS011;34804;49.214;12.276;2023-09-18T10:41:54;7.97;;;3.05;;
48993;SDS011;34804;49.214;12.276;2023-09-18T10:44:23;7.07;;;2.90;;
48993;SDS011;34804;49.214;12.276;2023-09-18T10:46:51;10.75;;;3.15;;
48993;SDS011;34804;49.214;12.276;2023-09-18T10:49:19;9.68;;;3.40;;
48993;SDS011;34804;49.214;12.276;2023-09-18T10:51:46;10.00;;;3.63;;
48993;SDS011;34804;49.214;12.276;2023-09-18T10:54:20;10.10;;;3.65;;
48993;SDS011;34804;49.214;12.276;2023-09-18T10:56:48;10.98;;;3.10;;
48993;SDS011;34804;49.214;12.276;2023-09-18T10:59:15;8.55;;;3.90;;
48993;SDS011;34804;49.214;12.276;2023-09-18T11:01:44;14.20;;;3.22;;
48993;SDS011;34804;49.214;12.276;2023-09-18T11:04:17;9.50;;;2.83;;
48993;SDS011;34804;49.214;12.276;2023-09-18T11:07:04;8.35;;;3.10;;
48993;SDS011;34804;49.214;12.276;2023-09-18T11:09:32;9.68;;;3.40;;
48993;SDS011;34804;49.214;12.276;2023-09-18T11:12:08;10.35;;;2.85;;
48993;SDS011;34804;49.214;12.276;2023-09-18T11:17:32;12.20;;;3.13;;
48993;SDS011;34804;49.214;12.276;2023-09-18T11:20:04;14.18;;;3.75;;
48993;SDS011;34804;49.214;12.276;2023-09-18T11:25:43;8.50;;;3.33;;
48993;SDS011;34804;49.214;12.276;2023-09-18T11:28:15;10.30;;;3.10;;
48993;SDS011;34804;49.214;12.276;2023-09-18T11:30:49;9.98;;;2.80;;
48993;SDS011;34804;49.214;12.276;2023-09-18T11:33:38;12.05;;;3.30;;
48993;SDS011;34804;49.214;12.276;2023-09-18T11:36:11;12.60;;;3.58;;
48993;SDS011;34804;49.214;12.276;2023-09-18T11:38:53;10.00;;;3.90;;
48993;SDS011;34804;49.214;12.276;2023-09-18T11:41:25;14.23;;;3.65;;
48993;SDS011;34804;49.214;12.276;2023-09-18T11:46:46;10.95;;;3.42;;
48993;SDS011;34804;49.214;12.276;2023-09-18T11:49:20;12.50;;;3.72;;
48993;SDS011;34804;49.214;12.276;2023-09-18T11:51:54;9.07;;;3.50;;
48993;SDS011;34804;49.214;12.276;2023-09-18T11:54:24;13.90;;;3.70;;
48993;SDS011;34804;49.214;12.276;2023-09-18T11:56:51;12.35;;;3.72;;
48993;SDS011;34804;49.214;12.276;2023-09-18T11:59:18;10.77;;;3.63;;
48993;SDS011;34804;49.214;12.276;2023-09-18T12:02:01;10.10;;;3.42;;
48993;SDS011;34804;49.214;12.276;2023-09-18T12:04:32;10.75;;;3.60;;
48993;SDS011;34804;49.214;12.276;2023-09-18T12:06:59;10.73;;;4.10;;
48993;SDS011;34804;49.214;12.276;2023-09-18T12:09:30;14.35;;;3.30;;
48993;SDS011;34804;49.214;12.276;2023-09-18T12:11:59;10.93;;;3.50;;
48993;SDS011;34804;49.214;12.276;2023-09-18T12:14:30;9.48;;;2.75;;
48993;SDS011;34804;49.214;12.276;2023-09-18T12:17:01;10.00;;;2.45;;
48993;SDS011;34804;49.214;12.276;2023-09-18T12:19:30;12.98;;;2.63;;
48993;SDS011;34804;49.214;12.276;2023-09-18T12:21:57;8.13;;;2.92;;
48993;SDS011;34804;49.214;12.276;2023-09-18T12:24:24;8.82;;;2.58;;
48993;SDS011;34804;49.214;12.276;2023-09-18T12:26:53;8.90;;;2.25;;
48993;SDS011;34804;49.214;12.276;2023-09-18T12:29:20;11.05;;;2.70;;
48993;SDS011;34804;49.214;12.276;2023-09-18T12:31:48;7.93;;;2.60;;
48993;SDS011;34804;49.214;12.276;2023-09-18T12:34:20;13.02;;;2.45;;
48993;SDS011;34804;49.214;12.276;2023-09-18T12:36:48;8.65;;;2.38;;
48993;SDS011;34804;49.214;12.276;2023-09-18T12:39:17;12.93;;;2.80;;
48993;SDS011;34804;49.214;12.276;2023-09-18T12:41:48;8.80;;;2.45;;
48993;SDS011;34804;49.214;12.276;2023-09-18T12:44:16;8.10;;;2.47;;
48993;SDS011;34804;49.214;12.276;2023-09-18T12:46:43;9.10;;;2.58;;
48993;SDS011;34804;49.214;12.276;2023-09-18T12:49:14;9.95;;;2.95;;
48993;SDS011;34804;49.214;12.276;2023-09-18T12:57:28;11.70;;;2.80;;
48993;SDS011;34804;49.214;12.276;2023-09-18T12:59:56;11.55;;;2.90;;
48993;SDS011;34804;49.214;12.276;2023-09-18T13:02:23;9.30;;;2.60;;
48993;SDS011;34804;49.214;12.276;2023-09-18T13:04:56;10.43;;;2.85;;
48993;SDS011;34804;49.214;12.276;2023-09-18T13:07:23;9.98;;;2.90;;
48993;SDS011;34804;49.214;12.276;2023-09-18T13:10:08;7.63;;;2.75;;
48993;SDS011;34804;49.214;12.276;2023-09-18T13:12:40;11.10;;;2.63;;
48993;SDS011;34804;49.214;12.276;2023-09-18T13:15:07;14.68;;;3.08;;
48993;SDS011;34804;49.214;12.276;2023-09-18T13:17:42;11.25;;;2.60;;
48993;SDS011;34804;49.214;12.276;2023-09-18T13:20:12;8.98;;;2.63;;
48993;SDS011;34804;49.214;12.276;2023-09-18T13:22:47;7.75;;;2.40;;
48993;SDS011;34804;49.214;12.276;2023-09-18T13:25:22;7.72;;;2.50;;
48993;SDS011;34804;49.214;12.276;2023-09-18T13:27:51;9.27;;;2.67;;
48993;SDS011;34804;49.214;12.276;2023-09-18T13:30:19;11.43;;;2.53;;
48993;SDS011;34804;49.214;12.276;2023-09-18T13:32:48;13.63;;;2.30;;
48993;SDS011;34804;49.214;12.276;2023-09-18T13:35:17;8.95;;;2.50;;
48993;SDS011;34804;49.214;12.276;2023-09-18T13:37:45;8.85;;;2.08;;
48993;SDS011;34804;49.214;12.276;2023-09-18T13:40:12;8.85;;;2.22;;
48993;SDS011;34804;49.214;12.276;2023-09-18T13:42:38;9.25;;;2.17;;
48993;SDS011;34804;49.214;12.276;2023-09-18T13:45:06;6.47;;;1.67;;
48993;SDS011;34804;49.214;12.276;2023-09-18T13:47:33;8.55;;;1.80;;
48993;SDS011;34804;49.214;12.276;2023-09-18T13:50:02;7.28;;;2.13;;
48993;SDS011;34804;49.214;12.276;2023-09-18T13:52:32;15.32;;;2.20;;
48993;SDS011;34804;49.214;12.276;2023-09-18T13:55:00;10.18;;;1.63;;
48993;SDS011;34804;49.214;12.276;2023-09-18T13:57:32;6.00;;;1.58;;
48993;SDS011;34804;49.214;12.276;2023-09-18T13:59:59;7.82;;;1.65;;
48993;SDS011;34804;49.214;12.276;2023-09-18T14:02:34;7.80;;;1.40;;
48993;SDS011;34804;49.214;12.276;2023-09-18T14:05:01;9.77;;;1.27;;
48993;SDS011;34804;49.214;12.276;2023-09-18T14:07:30;4.30;;;1.38;;
48993;SDS011;34804;49.214;12.276;2023-09-18T14:09:57;5.07;;;0.95;;
48993;SDS011;34804;49.214;12.276;2023-09-18T14:12:24;4.75;;;0.95;;
48993;SDS011;34804;49.214;12.276;2023-09-18T14:14:51;6.60;;;1.30;;
48993;SDS011;34804;49.214;12.276;2023-09-18T14:17:18;5.57;;;1.02;;
48993;SDS011;34804;49.214;12.276;2023-09-18T14:19:48;5.95;;;1.27;;
48993;SDS011;34804;49.214;12.276;2023-09-18T14:22:15;5.53;;;1.30;;
48993;SDS011;34804;49.214;12.276;2023-09-18T14:24:42;8.25;;;1.13;;
48993;SDS011;34804;49.214;12.276;2023-09-18T14:27:09;5.10;;;1.20;;
48993;SDS011;34804;49.214;12.276;2023-09-18T14:29:38;2.70;;;1.00;;
48993;SDS011;34804;49.214;12.276;2023-09-18T14:32:05;4.38;;;0.80;;
48993;SDS011;34804;49.214;12.276;2023-09-18T14:34:34;8.05;;;1.48;;
48993;SDS011;34804;49.214;12.276;2023-09-18T14:37:02;4.30;;;1.10;;
48993;SDS011;34804;49.214;12.276;2023-09-18T14:39:33;2.80;;;0.93;;
48993;SDS011;34804;49.214;12.276;2023-09-18T14:42:00;4.55;;;1.10;;
48993;SDS011;34804;49.214;12.276;2023-09-18T14:44:28;3.45;;;0.88;;
48993;SDS011;34804;49.214;12.276;2023-09-18T14:46:56;2.53;;;0.80;;
48993;SDS011;34804;49.214;12.276;2023-09-18T14:49:24;4.00;;;0.98;;
48993;SDS011;34804;49.214;12.276;2023-09-18T14:51:53;2.95;;;0.93;;
48993;SDS011;34804;49.214;12.276;2023-09-18T14:54:20;3.15;;;0.90;;
48993;SDS011;34804;49.214;12.276;2023-09-18T14:56:49;2.95;;;1.10;;
48993;SDS011;34804;49.214;12.276;2023-09-18T14:59:15;3.45;;;1.10;;
48993;SDS011;34804;49.214;12.276;2023-09-18T15:01:57;5.38;;;1.10;;
48993;SDS011;34804;49.214;12.276;2023-09-18T15:04:23;2.15;;;0.90;;
48993;SDS011;34804;49.214;12.276;2023-09-18T15:06:50;2.50;;;0.73;;
48993;SDS011;34804;49.214;12.276;2023-09-18T15:09:17;2.78;;;0.60;;
48993;SDS011;34804;49.214;12.276;2023-09-18T15:11:44;2.47;;;0.80;;